sensor_id;sensor_type;location;lat;lon;timestamp;pressure;altitude;pressure_sealevel;temperature;humidity
46448;BME280;32145;50.390;30.778;2023-10-31T00:02:20;99851.34;;;9.35;75.75
46448;BME280;32145;50.390;30.778;2023-10-31T00:05:18;99842.59;;;9.33;75.77
46448;BME280;32145;50.390;30.778;2023-10-31T00:08:14;99847.44;;;9.31;75.61
46448;BME280;32145;50.390;30.778;2023-10-31T00:11:11;99844.81;;;9.24;75.99
46448;BME280;32145;50.390;30.778;2023-10-31T00:14:07;99841.13;;;9.19;75.74
46448;BME280;32145;50.390;30.778;2023-10-31T00:17:03;99843.22;;;9.17;76.20
46448;BME280;32145;50.390;30.778;2023-10-31T00:20:00;99835.75;;;9.12;76.29
46448;BME280;32145;50.390;30.778;2023-10-31T00:22:55;99831.84;;;9.08;76.11
46448;BME280;32145;50.390;30.778;2023-10-31T00:25:50;99813.00;;;9.01;76.22
46448;BME280;32145;50.390;30.778;2023-10-31T00:28:44;99817.22;;;8.97;76.50
46448;BME280;32145;50.390;30.778;2023-10-31T00:31:39;99819.59;;;8.86;76.62
46448;BME280;32145;50.390;30.778;2023-10-31T00:34:33;99821.16;;;8.75;76.69
46448;BME280;32145;50.390;30.778;2023-10-31T00:37:27;99818.91;;;8.72;76.74
46448;BME280;32145;50.390;30.778;2023-10-31T00:40:25;99812.06;;;8.70;77.08
46448;BME280;32145;50.390;30.778;2023-10-31T00:43:22;99809.84;;;8.67;77.07
46448;BME280;32145;50.390;30.778;2023-10-31T00:46:18;99808.00;;;8.60;77.15
46448;BME280;32145;50.390;30.778;2023-10-31T00:49:15;99798.91;;;8.55;77.38
46448;BME280;32145;50.390;30.778;2023-10-31T00:52:11;99793.50;;;8.55;77.29
46448;BME280;32145;50.390;30.778;2023-10-31T00:55:07;99789.34;;;8.52;77.38
46448;BME280;32145;50.390;30.778;2023-10-31T00:58:05;99786.03;;;8.50;77.30
46448;BME280;32145;50.390;30.778;2023-10-31T01:01:02;99783.53;;;8.48;77.74
46448;BME280;32145;50.390;30.778;2023-10-31T01:03:58;99788.94;;;8.48;77.41
46448;BME280;32145;50.390;30.778;2023-10-31T01:06:53;99796.47;;;8.46;77.56
46448;BME280;32145;50.390;30.778;2023-10-31T01:09:47;99805.22;;;8.42;77.50
46448;BME280;32145;50.390;30.778;2023-10-31T01:12:41;99804.78;;;8.45;77.57
46448;BME280;32145;50.390;30.778;2023-10-31T01:15:37;99804.53;;;8.53;77.64
46448;BME280;32145;50.390;30.778;2023-10-31T01:18:31;99800.13;;;8.59;77.63
46448;BME280;32145;50.390;30.778;2023-10-31T01:21:26;99807.56;;;8.63;77.64
46448;BME280;32145;50.390;30.778;2023-10-31T01:24:20;99811.47;;;8.68;77.34
46448;BME280;32145;50.390;30.778;2023-10-31T01:27:14;99804.56;;;8.72;77.44
46448;BME280;32145;50.390;30.778;2023-10-31T01:30:10;99817.47;;;8.70;77.41
46448;BME280;32145;50.390;30.778;2023-10-31T01:33:08;99804.03;;;8.63;77.80
46448;BME280;32145;50.390;30.778;2023-10-31T01:36:04;99811.59;;;8.54;78.05
46448;BME280;32145;50.390;30.778;2023-10-31T01:39:01;99805.56;;;8.52;78.03
46448;BME280;32145;50.390;30.778;2023-10-31T01:41:57;99804.34;;;8.48;78.08
46448;BME280;32145;50.390;30.778;2023-10-31T01:44:53;99806.06;;;8.42;77.81
46448;BME280;32145;50.390;30.778;2023-10-31T01:47:50;99794.09;;;8.31;77.80
46448;BME280;32145;50.390;30.778;2023-10-31T01:50:45;99794.53;;;8.28;77.96
46448;BME280;32145;50.390;30.778;2023-10-31T01:53:40;99795.81;;;8.25;78.24
46448;BME280;32145;50.390;30.778;2023-10-31T01:56:34;99800.81;;;8.22;78.20
46448;BME280;32145;50.390;30.778;2023-10-31T01:59:28;99795.03;;;8.18;77.88
46448;BME280;32145;50.390;30.778;2023-10-31T02:02:25;99803.34;;;8.17;78.28
46448;BME280;32145;50.390;30.778;2023-10-31T02:05:22;99803.78;;;8.13;77.78
46448;BME280;32145;50.390;30.778;2023-10-31T02:08:20;99804.22;;;8.10;78.04
46448;BME280;32145;50.390;30.778;2023-10-31T02:11:16;99797.59;;;8.06;77.87
46448;BME280;32145;50.390;30.778;2023-10-31T02:14:13;99797.44;;;8.01;77.80
46448;BME280;32145;50.390;30.778;2023-10-31T02:17:09;99795.16;;;7.98;77.89
46448;BME280;32145;50.390;30.778;2023-10-31T02:20:07;99801.00;;;7.95;77.72
46448;BME280;32145;50.390;30.778;2023-10-31T02:23:04;99807.28;;;7.89;78.08
46448;BME280;32145;50.390;30.778;2023-10-31T02:26:00;99806.06;;;7.84;77.81
46448;BME280;32145;50.390;30.778;2023-10-31T02:28:57;99801.09;;;7.81;77.74
46448;BME280;32145;50.390;30.778;2023-10-31T02:31:53;99799.88;;;7.77;78.15
46448;BME280;32145;50.390;30.778;2023-10-31T02:34:49;99800.94;;;7.76;77.86
46448;BME280;32145;50.390;30.778;2023-10-31T02:37:46;99796.53;;;7.75;78.17
46448;BME280;32145;50.390;30.778;2023-10-31T02:40:44;99796.78;;;7.73;78.17
46448;BME280;32145;50.390;30.778;2023-10-31T02:43:40;99795.31;;;7.71;78.36
46448;BME280;32145;50.390;30.778;2023-10-31T02:46:37;99796.38;;;7.70;78.15
46448;BME280;32145;50.390;30.778;2023-10-31T02:49:33;99790.38;;;7.68;77.82
46448;BME280;32145;50.390;30.778;2023-10-31T02:52:30;99794.31;;;7.65;78.44
46448;BME280;32145;50.390;30.778;2023-10-31T02:55:24;99791.88;;;7.64;77.97
46448;BME280;32145;50.390;30.778;2023-10-31T02:58:20;99787.28;;;7.64;77.84
46448;BME280;32145;50.390;30.778;2023-10-31T03:01:14;99794.56;;;7.64;77.83
46448;BME280;32145;50.390;30.778;2023-10-31T03:04:09;99786.69;;;7.62;77.86
46448;BME280;32145;50.390;30.778;2023-10-31T03:07:03;99790.41;;;7.61;77.90
46448;BME280;32145;50.390;30.778;2023-10-31T03:09:57;99786.69;;;7.62;77.84
46448;BME280;32145;50.390;30.778;2023-10-31T03:12:52;99787.06;;;7.66;77.76
46448;BME280;32145;50.390;30.778;2023-10-31T03:15:47;99784.38;;;7.66;77.84
46448;BME280;32145;50.390;30.778;2023-10-31T03:18:41;99791.88;;;7.64;77.73
46448;BME280;32145;50.390;30.778;2023-10-31T03:21:35;99794.56;;;7.64;77.62
46448;BME280;32145;50.390;30.778;2023-10-31T03:24:30;99795.78;;;7.61;77.58
46448;BME280;32145;50.390;30.778;2023-10-31T03:27:24;99789.59;;;7.60;77.74
46448;BME280;32145;50.390;30.778;2023-10-31T03:30:18;99791.25;;;7.61;78.10
46448;BME280;32145;50.390;30.778;2023-10-31T03:33:14;99793.34;;;7.59;77.73
46448;BME280;32145;50.390;30.778;2023-10-31T03:36:09;99798.09;;;7.57;77.77
46448;BME280;32145;50.390;30.778;2023-10-31T03:39:06;99797.53;;;7.55;78.18
46448;BME280;32145;50.390;30.778;2023-10-31T03:42:02;99801.44;;;7.53;78.12
46448;BME280;32145;50.390;30.778;2023-10-31T03:44:58;99801.91;;;7.50;78.15
46448;BME280;32145;50.390;30.778;2023-10-31T03:47:55;99806.66;;;7.47;78.26
46448;BME280;32145;50.390;30.778;2023-10-31T03:50:52;99806.66;;;7.47;78.21
46448;BME280;32145;50.390;30.778;2023-10-31T03:53:48;99809.56;;;7.46;78.51
46448;BME280;32145;50.390;30.778;2023-10-31T03:56:45;99806.06;;;7.45;77.94
46448;BME280;32145;50.390;30.778;2023-10-31T03:59:41;99801.69;;;7.44;77.89
46448;BME280;32145;50.390;30.778;2023-10-31T04:02:35;99805.44;;;7.43;78.46
46448;BME280;32145;50.390;30.778;2023-10-31T04:05:30;99802.97;;;7.42;77.93
46448;BME280;32145;50.390;30.778;2023-10-31T04:08:26;99805.66;;;7.42;78.43
46448;BME280;32145;50.390;30.778;2023-10-31T04:11:20;99804.22;;;7.39;77.96
46448;BME280;32145;50.390;30.778;2023-10-31T04:14:14;99809.81;;;7.38;77.73
46448;BME280;32145;50.390;30.778;2023-10-31T04:17:09;99807.97;;;7.38;78.43
46448;BME280;32145;50.390;30.778;2023-10-31T04:20:06;99808.97;;;7.37;78.20
46448;BME280;32145;50.390;30.778;2023-10-31T04:23:02;99800.09;;;7.37;77.90
46448;BME280;32145;50.390;30.778;2023-10-31T04:26:00;99801.72;;;7.38;77.79
46448;BME280;32145;50.390;30.778;2023-10-31T04:28:54;99800.50;;;7.33;78.28
46448;BME280;32145;50.390;30.778;2023-10-31T04:31:48;99801.78;;;7.31;78.20
46448;BME280;32145;50.390;30.778;2023-10-31T04:34:43;99790.97;;;7.31;78.26
46448;BME280;32145;50.390;30.778;2023-10-31T04:37:37;99794.72;;;7.30;78.34
46448;BME280;32145;50.390;30.778;2023-10-31T04:40:32;99792.03;;;7.30;77.95
46448;BME280;32145;50.390;30.778;2023-10-31T04:43:27;99801.97;;;7.29;78.09
46448;BME280;32145;50.390;30.778;2023-10-31T04:46:22;99797.63;;;7.28;78.42
46448;BME280;32145;50.390;30.778;2023-10-31T04:49:16;99807.38;;;7.29;78.14
46448;BME280;32145;50.390;30.778;2023-10-31T04:52:10;99812.75;;;7.29;78.61
46448;BME280;32145;50.390;30.778;2023-10-31T04:55:05;99813.38;;;7.31;78.46
46448;BME280;32145;50.390;30.778;2023-10-31T04:58:00;99821.03;;;7.34;78.48
46448;BME280;32145;50.390;30.778;2023-10-31T05:00:57;99815.00;;;7.39;78.08
46448;BME280;32145;50.390;30.778;2023-10-31T05:03:54;99826.19;;;7.43;78.37
46448;BME280;32145;50.390;30.778;2023-10-31T05:06:50;99829.09;;;7.48;78.42
46448;BME280;32145;50.390;30.778;2023-10-31T05:09:46;99829.25;;;7.53;78.21
46448;BME280;32145;50.390;30.778;2023-10-31T05:12:42;99826.16;;;7.56;78.42
46448;BME280;32145;50.390;30.778;2023-10-31T05:15:39;99824.03;;;7.58;78.02
46448;BME280;32145;50.390;30.778;2023-10-31T05:18:37;99827.16;;;7.62;78.06
46448;BME280;32145;50.390;30.778;2023-10-31T05:21:34;99834.78;;;7.65;78.33
46448;BME280;32145;50.390;30.778;2023-10-31T05:24:30;99838.50;;;7.71;78.49
46448;BME280;32145;50.390;30.778;2023-10-31T05:27:27;99827.91;;;7.76;77.94
46448;BME280;32145;50.390;30.778;2023-10-31T05:30:23;99830.13;;;7.86;78.31
46448;BME280;32145;50.390;30.778;2023-10-31T05:33:20;99818.88;;;7.96;78.12
46448;BME280;32145;50.390;30.778;2023-10-31T05:36:21;99826.88;;;8.09;78.64
46448;BME280;32145;50.390;30.778;2023-10-31T05:39:18;99812.50;;;8.16;78.52
46448;BME280;32145;50.390;30.778;2023-10-31T05:42:14;99805.78;;;8.25;78.33
46448;BME280;32145;50.390;30.778;2023-10-31T05:45:10;99811.53;;;8.35;78.04
46448;BME280;32145;50.390;30.778;2023-10-31T05:48:07;99818.50;;;8.43;78.33
46448;BME280;32145;50.390;30.778;2023-10-31T05:51:03;99823.44;;;8.53;78.01
46448;BME280;32145;50.390;30.778;2023-10-31T05:54:01;99831.28;;;8.61;78.03
46448;BME280;32145;50.390;30.778;2023-10-31T05:56:58;99832.88;;;8.69;77.73
46448;BME280;32145;50.390;30.778;2023-10-31T05:59:54;99834.03;;;8.80;77.61
46448;BME280;32145;50.390;30.778;2023-10-31T06:02:44;99833.50;;;8.90;77.53
46448;BME280;32145;50.390;30.778;2023-10-31T06:05:39;99826.53;;;9.01;77.25
46448;BME280;32145;50.390;30.778;2023-10-31T06:08:35;99828.72;;;9.11;76.90
46448;BME280;32145;50.390;30.778;2023-10-31T06:11:33;99830.06;;;9.20;76.88
46448;BME280;32145;50.390;30.778;2023-10-31T06:14:27;99827.28;;;9.27;76.36
46448;BME280;32145;50.390;30.778;2023-10-31T06:17:21;99821.78;;;9.34;76.54
46448;BME280;32145;50.390;30.778;2023-10-31T06:20:16;99812.09;;;9.45;76.24
46448;BME280;32145;50.390;30.778;2023-10-31T06:23:11;99817.56;;;9.57;76.01
46448;BME280;32145;50.390;30.778;2023-10-31T06:26:05;99824.59;;;9.76;75.38
46448;BME280;32145;50.390;30.778;2023-10-31T06:29:01;99817.22;;;9.96;75.66
46448;BME280;32145;50.390;30.778;2023-10-31T06:31:57;99808.22;;;10.14;74.79
46448;BME280;32145;50.390;30.778;2023-10-31T06:34:53;99816.72;;;10.29;74.43
46448;BME280;32145;50.390;30.778;2023-10-31T06:37:50;99814.00;;;10.41;74.36
46448;BME280;32145;50.390;30.778;2023-10-31T06:40:47;99814.31;;;10.52;74.02
46448;BME280;32145;50.390;30.778;2023-10-31T06:43:43;99812.88;;;10.61;73.67
46448;BME280;32145;50.390;30.778;2023-10-31T06:46:41;99816.69;;;10.72;73.60
46448;BME280;32145;50.390;30.778;2023-10-31T06:49:37;99809.00;;;10.81;72.68
46448;BME280;32145;50.390;30.778;2023-10-31T06:52:34;99821.84;;;10.86;73.09
46448;BME280;32145;50.390;30.778;2023-10-31T06:55:30;99815.72;;;10.90;72.57
46448;BME280;32145;50.390;30.778;2023-10-31T06:58:26;99811.00;;;10.98;72.51
46448;BME280;32145;50.390;30.778;2023-10-31T07:01:23;99809.56;;;11.07;72.87
46448;BME280;32145;50.390;30.778;2023-10-31T07:04:20;99816.03;;;11.18;72.27
46448;BME280;32145;50.390;30.778;2023-10-31T07:07:16;99800.78;;;11.29;72.63
46448;BME280;32145;50.390;30.778;2023-10-31T07:10:13;99806.41;;;11.39;71.91
46448;BME280;32145;50.390;30.778;2023-10-31T07:13:09;99803.69;;;11.51;71.62
46448;BME280;32145;50.390;30.778;2023-10-31T07:16:06;99809.75;;;11.58;71.77
46448;BME280;32145;50.390;30.778;2023-10-31T07:19:03;99818.50;;;11.60;70.95
46448;BME280;32145;50.390;30.778;2023-10-31T07:21:55;99821.56;;;11.64;71.20
46448;BME280;32145;50.390;30.778;2023-10-31T07:24:49;99820.13;;;11.73;70.59
46448;BME280;32145;50.390;30.778;2023-10-31T07:27:45;99820.06;;;11.85;70.83
46448;BME280;32145;50.390;30.778;2023-10-31T07:30:42;99835.72;;;11.95;70.35
46448;BME280;32145;50.390;30.778;2023-10-31T07:33:38;99828.09;;;12.09;70.39
46448;BME280;32145;50.390;30.778;2023-10-31T07:36:34;99818.81;;;12.22;70.12
46448;BME280;32145;50.390;30.778;2023-10-31T07:39:32;99812.00;;;12.37;69.62
46448;BME280;32145;50.390;30.778;2023-10-31T07:42:28;99816.03;;;12.52;69.35
46448;BME280;32145;50.390;30.778;2023-10-31T07:45:25;99807.03;;;12.68;69.14
46448;BME280;32145;50.390;30.778;2023-10-31T07:48:21;99799.50;;;12.75;68.48
46448;BME280;32145;50.390;30.778;2023-10-31T07:51:15;99807.19;;;12.79;67.83
46448;BME280;32145;50.390;30.778;2023-10-31T07:54:10;99805.28;;;12.79;67.71
46448;BME280;32145;50.390;30.778;2023-10-31T07:57:07;99808.66;;;12.86;67.56
46448;BME280;32145;50.390;30.778;2023-10-31T08:00:08;99807.88;;;12.91;67.01
46448;BME280;32145;50.390;30.778;2023-10-31T08:03:05;99791.38;;;12.98;67.08
46448;BME280;32145;50.390;30.778;2023-10-31T08:06:01;99790.13;;;13.06;66.82
46448;BME280;32145;50.390;30.778;2023-10-31T08:08:55;99800.53;;;13.09;66.38
46448;BME280;32145;50.390;30.778;2023-10-31T08:11:50;99800.56;;;13.14;66.22
46448;BME280;32145;50.390;30.778;2023-10-31T08:14:45;99797.41;;;13.22;66.22
46448;BME280;32145;50.390;30.778;2023-10-31T08:17:40;99779.44;;;13.21;65.80
46448;BME280;32145;50.390;30.778;2023-10-31T08:20:36;99782.00;;;13.33;65.78
46448;BME280;32145;50.390;30.778;2023-10-31T08:23:33;99770.16;;;13.45;65.76
46448;BME280;32145;50.390;30.778;2023-10-31T08:26:27;99766.22;;;13.52;65.61
46448;BME280;32145;50.390;30.778;2023-10-31T08:29:21;99776.59;;;13.56;65.48
46448;BME280;32145;50.390;30.778;2023-10-31T08:32:17;99775.00;;;13.60;65.37
46448;BME280;32145;50.390;30.778;2023-10-31T08:35:11;99761.72;;;13.69;65.28
46448;BME280;32145;50.390;30.778;2023-10-31T08:38:06;99762.38;;;13.81;65.22
46448;BME280;32145;50.390;30.778;2023-10-31T08:41:00;99744.16;;;13.82;64.32
46448;BME280;32145;50.390;30.778;2023-10-31T08:43:54;99738.69;;;13.82;64.29
46448;BME280;32145;50.390;30.778;2023-10-31T08:46:49;99736.81;;;13.82;64.43
46448;BME280;32145;50.390;30.778;2023-10-31T08:49:44;99737.13;;;13.91;64.51
46448;BME280;32145;50.390;30.778;2023-10-31T08:52:39;99737.22;;;14.01;64.67
46448;BME280;32145;50.390;30.778;2023-10-31T08:55:33;99729.66;;;14.09;63.89
46448;BME280;32145;50.390;30.778;2023-10-31T08:58:28;99732.69;;;14.12;63.92
46448;BME280;32145;50.390;30.778;2023-10-31T09:01:22;99722.63;;;14.18;63.65
46448;BME280;32145;50.390;30.778;2023-10-31T09:04:16;99731.41;;;14.25;63.80
46448;BME280;32145;50.390;30.778;2023-10-31T09:07:14;99724.38;;;14.35;63.36
46448;BME280;32145;50.390;30.778;2023-10-31T09:10:08;99715.19;;;14.46;63.40
46448;BME280;32145;50.390;30.778;2023-10-31T09:13:02;99711.16;;;14.59;62.94
46448;BME280;32145;50.390;30.778;2023-10-31T09:15:57;99707.16;;;14.72;62.81
46448;BME280;32145;50.390;30.778;2023-10-31T09:18:52;99708.31;;;14.87;63.01
46448;BME280;32145;50.390;30.778;2023-10-31T09:21:46;99700.72;;;14.94;62.77
46448;BME280;32145;50.390;30.778;2023-10-31T09:24:42;99688.75;;;15.00;62.60
46448;BME280;32145;50.390;30.778;2023-10-31T09:27:26;99687.38;;;15.08;62.41
46448;BME280;32145;50.390;30.778;2023-10-31T09:30:20;99673.78;;;15.18;62.32
46448;BME280;32145;50.390;30.778;2023-10-31T09:33:10;99675.69;;;15.28;62.37
46448;BME280;32145;50.390;30.778;2023-10-31T09:36:06;99673.81;;;15.39;61.99
46448;BME280;32145;50.390;30.778;2023-10-31T09:39:00;99673.00;;;15.44;62.09
46448;BME280;32145;50.390;30.778;2023-10-31T09:41:58;99673.00;;;15.49;62.04
46448;BME280;32145;50.390;30.778;2023-10-31T09:44:48;99667.81;;;15.58;62.28
46448;BME280;32145;50.390;30.778;2023-10-31T09:47:42;99665.38;;;15.67;61.60
46448;BME280;32145;50.390;30.778;2023-10-31T09:50:38;99662.09;;;15.75;61.40
46448;BME280;32145;50.390;30.778;2023-10-31T09:53:33;99654.16;;;15.84;61.24
46448;BME280;32145;50.390;30.778;2023-10-31T09:56:30;99649.22;;;15.91;60.95
46448;BME280;32145;50.390;30.778;2023-10-31T09:59:26;99650.91;;;15.97;61.17
46448;BME280;32145;50.390;30.778;2023-10-31T10:02:21;99649.50;;;16.05;60.88
46448;BME280;32145;50.390;30.778;2023-10-31T10:05:18;99639.09;;;16.13;60.96
46448;BME280;32145;50.390;30.778;2023-10-31T10:08:14;99638.28;;;16.22;61.01
46448;BME280;32145;50.390;30.778;2023-10-31T10:11:11;99640.72;;;16.34;60.56
46448;BME280;32145;50.390;30.778;2023-10-31T10:14:07;99637.94;;;16.45;60.10
46448;BME280;32145;50.390;30.778;2023-10-31T10:17:14;99640.63;;;16.55;59.35
46448;BME280;32145;50.390;30.778;2023-10-31T10:20:11;99630.78;;;16.59;59.73
46448;BME280;32145;50.390;30.778;2023-10-31T10:23:07;99634.00;;;16.72;59.19
46448;BME280;32145;50.390;30.778;2023-10-31T10:26:04;99626.31;;;16.79;58.84
46448;BME280;32145;50.390;30.778;2023-10-31T10:29:00;99626.25;;;16.90;58.71
46448;BME280;32145;50.390;30.778;2023-10-31T10:31:56;99620.19;;;16.98;58.83
46448;BME280;32145;50.390;30.778;2023-10-31T10:34:54;99611.41;;;17.06;58.40
46448;BME280;32145;50.390;30.778;2023-10-31T10:37:50;99621.47;;;17.16;58.76
46448;BME280;32145;50.390;30.778;2023-10-31T10:40:46;99615.66;;;17.23;58.73
46448;BME280;32145;50.390;30.778;2023-10-31T10:43:37;99614.81;;;17.28;58.53
46448;BME280;32145;50.390;30.778;2023-10-31T10:46:35;99621.38;;;17.32;58.60
46448;BME280;32145;50.390;30.778;2023-10-31T10:49:33;99618.88;;;17.35;58.60
46448;BME280;32145;50.390;30.778;2023-10-31T10:52:36;99612.53;;;17.40;57.91
46448;BME280;32145;50.390;30.778;2023-10-31T10:55:39;99609.47;;;17.47;58.19
46448;BME280;32145;50.390;30.778;2023-10-31T10:58:44;99607.25;;;17.49;58.41
46448;BME280;32145;50.390;30.778;2023-10-31T11:01:45;99604.22;;;17.50;58.12
46448;BME280;32145;50.390;30.778;2023-10-31T11:04:42;99602.53;;;17.55;58.22
46448;BME280;32145;50.390;30.778;2023-10-31T11:07:40;99600.53;;;17.65;57.71
46448;BME280;32145;50.390;30.778;2023-10-31T11:10:38;99597.75;;;17.71;57.27
46448;BME280;32145;50.390;30.778;2023-10-31T11:13:35;99590.53;;;17.80;57.55
46448;BME280;32145;50.390;30.778;2023-10-31T11:16:38;99583.91;;;17.86;57.50
46448;BME280;32145;50.390;30.778;2023-10-31T11:19:33;99579.41;;;17.96;57.35
46448;BME280;32145;50.390;30.778;2023-10-31T11:22:37;99584.25;;;18.04;56.61
46448;BME280;32145;50.390;30.778;2023-10-31T11:25:33;99585.88;;;18.10;56.30
46448;BME280;32145;50.390;30.778;2023-10-31T11:28:27;99573.19;;;18.14;56.21
46448;BME280;32145;50.390;30.778;2023-10-31T11:31:21;99570.38;;;18.20;55.54
46448;BME280;32145;50.390;30.778;2023-10-31T11:34:20;99574.66;;;18.31;54.80
46448;BME280;32145;50.390;30.778;2023-10-31T11:37:23;99569.03;;;18.41;53.78
46448;BME280;32145;50.390;30.778;2023-10-31T11:40:23;99563.47;;;18.47;53.51
46448;BME280;32145;50.390;30.778;2023-10-31T11:43:21;99562.81;;;18.55;53.35
46448;BME280;32145;50.390;30.778;2023-10-31T11:46:18;99559.38;;;18.68;53.52
46448;BME280;32145;50.390;30.778;2023-10-31T11:49:15;99548.75;;;18.81;53.27
46448;BME280;32145;50.390;30.778;2023-10-31T11:52:14;99542.78;;;18.93;52.59
46448;BME280;32145;50.390;30.778;2023-10-31T11:55:11;99540.19;;;19.02;52.00
46448;BME280;32145;50.390;30.778;2023-10-31T11:58:15;99520.09;;;19.06;50.96
46448;BME280;32145;50.390;30.778;2023-10-31T12:01:13;99510.34;;;19.14;50.41
46448;BME280;32145;50.390;30.778;2023-10-31T12:04:09;99511.81;;;19.26;50.24
46448;BME280;32145;50.390;30.778;2023-10-31T12:07:05;99499.22;;;19.39;49.09
46448;BME280;32145;50.390;30.778;2023-10-31T12:10:02;99498.84;;;19.45;49.22
46448;BME280;32145;50.390;30.778;2023-10-31T12:12:58;99492.63;;;19.54;48.75
46448;BME280;32145;50.390;30.778;2023-10-31T12:15:54;99493.34;;;19.60;47.50
46448;BME280;32145;50.390;30.778;2023-10-31T12:18:56;99489.69;;;19.64;46.86
46448;BME280;32145;50.390;30.778;2023-10-31T12:21:52;99488.47;;;19.70;47.35
46448;BME280;32145;50.390;30.778;2023-10-31T12:24:48;99485.63;;;19.76;46.38
46448;BME280;32145;50.390;30.778;2023-10-31T12:27:45;99489.50;;;19.75;46.41
46448;BME280;32145;50.390;30.778;2023-10-31T12:30:44;99491.75;;;19.73;46.42
46448;BME280;32145;50.390;30.778;2023-10-31T12:33:40;99488.41;;;19.76;46.46
46448;BME280;32145;50.390;30.778;2023-10-31T12:36:39;99493.66;;;19.72;46.64
46448;BME280;32145;50.390;30.778;2023-10-31T12:39:35;99487.88;;;19.74;46.97
46448;BME280;32145;50.390;30.778;2023-10-31T12:42:32;99493.91;;;19.76;46.69
46448;BME280;32145;50.390;30.778;2023-10-31T12:45:28;99501.50;;;19.79;46.77
46448;BME280;32145;50.390;30.778;2023-10-31T12:48:24;99488.88;;;19.78;46.88
46448;BME280;32145;50.390;30.778;2023-10-31T12:51:21;99491.53;;;19.83;47.12
46448;BME280;32145;50.390;30.778;2023-10-31T12:54:28;99494.91;;;19.80;47.06
46448;BME280;32145;50.390;30.778;2023-10-31T12:57:25;99487.44;;;19.80;47.44
46448;BME280;32145;50.390;30.778;2023-10-31T13:00:22;99486.75;;;19.75;47.56
46448;BME280;32145;50.390;30.778;2023-10-31T13:03:18;99476.44;;;19.66;47.88
46448;BME280;32145;50.390;30.778;2023-10-31T13:06:15;99478.78;;;19.59;48.24
46448;BME280;32145;50.390;30.778;2023-10-31T13:09:11;99468.50;;;19.51;48.87
46448;BME280;32145;50.390;30.778;2023-10-31T13:12:09;99473.19;;;19.50;49.11
46448;BME280;32145;50.390;30.778;2023-10-31T13:15:07;99470.75;;;19.49;49.20
46448;BME280;32145;50.390;30.778;2023-10-31T13:18:04;99472.97;;;19.47;49.23
46448;BME280;32145;50.390;30.778;2023-10-31T13:21:00;99470.31;;;19.41;49.46
46448;BME280;32145;50.390;30.778;2023-10-31T13:23:56;99465.44;;;19.38;49.96
46448;BME280;32145;50.390;30.778;2023-10-31T13:26:52;99465.44;;;19.38;50.21
46448;BME280;32145;50.390;30.778;2023-10-31T13:29:48;99470.72;;;19.35;50.28
46448;BME280;32145;50.390;30.778;2023-10-31T13:32:42;99467.25;;;19.29;50.41
46448;BME280;32145;50.390;30.778;2023-10-31T13:35:37;99472.31;;;19.22;50.78
46448;BME280;32145;50.390;30.778;2023-10-31T13:38:31;99477.38;;;19.14;51.15
46448;BME280;32145;50.390;30.778;2023-10-31T13:41:27;99476.50;;;19.00;51.71
46448;BME280;32145;50.390;30.778;2023-10-31T13:44:24;99474.53;;;18.86;52.18
46448;BME280;32145;50.390;30.778;2023-10-31T13:47:19;99486.28;;;18.73;52.60
46448;BME280;32145;50.390;30.778;2023-10-31T13:50:13;99477.16;;;18.58;53.20
46448;BME280;32145;50.390;30.778;2023-10-31T13:53:08;99477.06;;;18.44;53.98
46448;BME280;32145;50.390;30.778;2023-10-31T13:56:03;99480.25;;;18.32;54.37
46448;BME280;32145;50.390;30.778;2023-10-31T13:58:57;99483.72;;;18.19;54.77
46448;BME280;32145;50.390;30.778;2023-10-31T14:01:51;99470.72;;;18.05;55.32
46448;BME280;32145;50.390;30.778;2023-10-31T14:04:49;99475.19;;;17.96;55.79
46448;BME280;32145;50.390;30.778;2023-10-31T14:07:45;99472.59;;;17.85;56.20
46448;BME280;32145;50.390;30.778;2023-10-31T14:10:41;99475.16;;;17.76;56.58
46448;BME280;32145;50.390;30.778;2023-10-31T14:13:38;99470.06;;;17.64;56.90
46448;BME280;32145;50.390;30.778;2023-10-31T14:16:34;99471.00;;;17.55;57.10
46448;BME280;32145;50.390;30.778;2023-10-31T14:19:30;99466.16;;;17.46;57.69
46448;BME280;32145;50.390;30.778;2023-10-31T14:22:22;99469.53;;;17.38;57.95
46448;BME280;32145;50.390;30.778;2023-10-31T14:25:16;99466.59;;;17.29;58.18
46448;BME280;32145;50.390;30.778;2023-10-31T14:28:10;99465.06;;;17.18;58.33
46448;BME280;32145;50.390;30.778;2023-10-31T14:31:05;99476.09;;;17.07;58.82
46448;BME280;32145;50.390;30.778;2023-10-31T14:33:59;99467.94;;;16.97;59.07
46448;BME280;32145;50.390;30.778;2023-10-31T14:36:54;99455.97;;;16.87;58.98
46448;BME280;32145;50.390;30.778;2023-10-31T14:39:49;99457.16;;;16.76;59.19
46448;BME280;32145;50.390;30.778;2023-10-31T14:42:44;99441.91;;;16.65;59.55
46448;BME280;32145;50.390;30.778;2023-10-31T14:45:38;99447.47;;;16.54;59.73
46448;BME280;32145;50.390;30.778;2023-10-31T14:48:32;99445.34;;;16.46;59.71
46448;BME280;32145;50.390;30.778;2023-10-31T14:51:27;99446.50;;;16.34;60.02
46448;BME280;32145;50.390;30.778;2023-10-31T14:54:21;99438.91;;;16.26;60.16
46448;BME280;32145;50.390;30.778;2023-10-31T14:57:18;99445.47;;;16.20;60.41
46448;BME280;32145;50.390;30.778;2023-10-31T15:00:15;99451.78;;;16.15;60.34
46448;BME280;32145;50.390;30.778;2023-10-31T15:03:12;99435.13;;;16.12;60.45
46448;BME280;32145;50.390;30.778;2023-10-31T15:06:08;99444.50;;;16.00;60.41
46448;BME280;32145;50.390;30.778;2023-10-31T15:09:04;99443.41;;;15.91;60.65
46448;BME280;32145;50.390;30.778;2023-10-31T15:12:01;99432.75;;;15.84;60.61
46448;BME280;32145;50.390;30.778;2023-10-31T15:14:59;99435.28;;;15.75;61.05
46448;BME280;32145;50.390;30.778;2023-10-31T15:17:55;99429.31;;;15.63;61.27
46448;BME280;32145;50.390;30.778;2023-10-31T15:20:51;99427.16;;;15.54;61.28
46448;BME280;32145;50.390;30.778;2023-10-31T15:23:48;99429.63;;;15.45;61.35
46448;BME280;32145;50.390;30.778;2023-10-31T15:26:44;99428.28;;;15.32;62.18